Terminal Aerodrome Forecast
Issued by NWS

Home | Current Version | Previous Version | Text Only | Print | Product List | Glossary On
Versions: 1 2 3 4 5 6 7 8 9 10 11 12
000
FTUS41 KBTV 291130
TAFMSS
TAF
KMSS 291130Z 2912/3012 06008KT P6SM FEW150
     FM291700 22010KT P6SM VCSH SCT200
     FM300000 21006KT P6SM VCSH BKN200
     FM301000 22009KT P6SM BKN120=

USA.gov is the U.S. government's official web portal to all federal, state and local government web resources and services.